createdAt,value
2019-05-12T00:01:52.541Z,102806.22
2019-05-12T00:04:19.541Z,102808.02
2019-05-12T00:06:47.902Z,102810.40
2019-05-12T00:09:15.022Z,102814.32
2019-05-12T00:11:42.052Z,102813.25
2019-05-12T00:14:09.112Z,102819.37
2019-05-12T00:16:38.382Z,102824.13
2019-05-12T00:19:05.062Z,102828.06
2019-05-12T00:21:32.116Z,102830.84
2019-05-12T00:24:11.432Z,102830.84
2019-05-12T00:26:39.006Z,102830.97
2019-05-12T00:29:07.712Z,102833.31
2019-05-12T00:31:34.946Z,102830.44
2019-05-12T00:34:01.982Z,102818.42
2019-05-12T00:36:29.347Z,102839.41
2019-05-12T00:38:57.991Z,102830.30
2019-05-12T00:41:25.162Z,102825.88
2019-05-12T00:43:52.210Z,102832.02
2019-05-12T00:46:19.218Z,102832.02
2019-05-12T00:48:48.216Z,102844.88
2019-05-12T00:51:15.172Z,102838.29
2019-05-12T00:53:43.518Z,102847.56
2019-05-12T00:56:10.594Z,102844.38
2019-05-12T00:58:38.249Z,102853.02
2019-05-12T01:01:07.969Z,102850.03
2019-05-12T01:03:34.268Z,102857.71
2019-05-12T01:06:01.305Z,102854.46
2019-05-12T01:08:28.342Z,102855.98
2019-05-12T01:10:55.343Z,102864.34
2019-05-12T01:13:22.381Z,102864.34
2019-05-12T01:15:49.409Z,102873.36
2019-05-12T01:18:18.125Z,102871.92
2019-05-12T01:20:47.791Z,102871.92
2019-05-12T01:23:14.429Z,102878.42
2019-05-12T01:25:41.441Z,102879.39
2019-05-12T01:28:08.600Z,102883.39
2019-05-12T01:30:35.677Z,102880.42
2019-05-12T01:33:02.734Z,102884.64
2019-05-12T01:35:29.765Z,102886.52
2019-05-12T01:38:01.169Z,102886.52
2019-05-12T01:40:28.235Z,102884.92
2019-05-12T01:42:54.685Z,102893.55
2019-05-12T01:45:21.679Z,102892.80
2019-05-12T01:47:48.736Z,102904.84
2019-05-12T01:50:17.754Z,102892.97
2019-05-12T01:52:44.668Z,102903.20
2019-05-12T01:55:11.808Z,102911.44
2019-05-12T01:57:38.943Z,102902.45
2019-05-12T02:00:27.924Z,102907.91
2019-05-12T02:02:54.432Z,102913.44
2019-05-12T02:05:21.466Z,102913.44
2019-05-12T02:07:53.358Z,102914.97
2019-05-12T02:10:20.569Z,102924.06
2019-05-12T02:12:49.092Z,102928.69
2019-05-12T02:15:18.537Z,102928.69
2019-05-12T02:17:47.962Z,102932.05
2019-05-12T02:20:15.315Z,102933.58
2019-05-12T02:22:42.390Z,102934.89
2019-05-12T02:25:10.403Z,102935.08
2019-05-12T02:27:38.304Z,102948.55
2019-05-12T02:30:09.687Z,102958.17
2019-05-12T02:32:48.114Z,102956.41
2019-05-12T02:35:06.260Z,102961.14
2019-05-12T02:37:35.758Z,102952.72
2019-05-12T02:40:04.718Z,102957.09
2019-05-12T02:42:34.209Z,102964.34
2019-05-12T02:45:00.304Z,102965.84
2019-05-12T02:47:27.320Z,102965.30
2019-05-12T02:49:54.569Z,102970.27
2019-05-12T02:52:24.979Z,102971.39
2019-05-12T02:54:56.913Z,102971.39
2019-05-12T02:57:25.243Z,102969.92
2019-05-12T02:59:54.046Z,102974.08
2019-05-12T03:02:24.647Z,102977.39
2019-05-12T03:04:54.756Z,102980.48
2019-05-12T03:07:25.399Z,102983.61
2019-05-12T03:10:14.928Z,102985.11
2019-05-12T03:12:44.960Z,102989.88
2019-05-12T03:15:14.839Z,102995.89
2019-05-12T03:17:39.992Z,102997.98
2019-05-12T03:20:07.121Z,102997.08
2019-05-12T03:22:35.378Z,102998.48
2019-05-12T03:25:11.368Z,102993.59
2019-05-12T03:27:34.879Z,103003.27
2019-05-12T03:30:00.673Z,103003.27
2019-05-12T03:32:28.385Z,103012.26
2019-05-12T03:34:57.985Z,103011.28
2019-05-12T03:37:30.720Z,103022.68
2019-05-12T03:39:54.540Z,103022.68
2019-05-12T03:42:24.835Z,103035.83
2019-05-12T03:44:50.578Z,103039.59
2019-05-12T03:47:17.626Z,103041.86
2019-05-12T03:49:45.446Z,103039.31
2019-05-12T03:52:15.296Z,103039.31
2019-05-12T03:54:44.967Z,103045.28
2019-05-12T03:57:10.673Z,103042.27
2019-05-12T03:59:37.726Z,103042.27
2019-05-12T04:02:06.855Z,103050.86
2019-05-12T04:04:34.770Z,103044.16
2019-05-12T04:07:05.048Z,103063.20
2019-05-12T04:09:31.073Z,103056.64
2019-05-12T04:11:59.922Z,103064.83
2019-05-12T04:14:26.933Z,103059.67
2019-05-12T04:16:55.094Z,103071.05
2019-05-12T04:19:24.778Z,103072.98
2019-05-12T04:21:54.580Z,103076.70
2019-05-12T04:24:20.146Z,103081.90
2019-05-12T04:26:47.217Z,103086.34
2019-05-12T04:29:15.505Z,103086.34
2019-05-12T04:31:44.232Z,103091.02
2019-05-12T04:34:15.646Z,103104.34
2019-05-12T04:36:40.434Z,103104.34
2019-05-12T04:39:07.720Z,103107.59
2019-05-12T04:41:35.595Z,103106.73
2019-05-12T04:44:05.861Z,103114.69
2019-05-12T04:46:34.687Z,103115.08
2019-05-12T04:49:04.979Z,103117.30
2019-05-12T04:51:30.839Z,103114.92
2019-05-12T04:53:57.880Z,103120.80
2019-05-12T04:56:25.252Z,103125.53
2019-05-12T04:58:54.611Z,103125.53
2019-05-12T05:01:25.006Z,103133.86
2019-05-12T05:03:50.949Z,103130.81
2019-05-12T05:06:17.965Z,103138.92
2019-05-12T05:08:45.008Z,103144.02
2019-05-12T05:11:14.658Z,103148.05
2019-05-12T05:13:41.014Z,103146.80
2019-05-12T05:16:08.068Z,103141.73
2019-05-12T05:18:35.096Z,103141.73
2019-05-12T05:21:04.538Z,103148.92
2019-05-12T05:23:33.385Z,103162.20
2019-05-12T05:26:00.026Z,103156.84
2019-05-12T05:28:27.099Z,103158.55
2019-05-12T05:30:54.115Z,103164.78
2019-05-12T05:33:23.632Z,103168.03
2019-05-12T05:35:50.086Z,103166.80
2019-05-12T05:38:20.695Z,103169.03
2019-05-12T05:40:46.027Z,103172.42
2019-05-12T05:43:18.242Z,103185.09
2019-05-12T05:45:43.854Z,103198.66
2019-05-12T05:48:13.389Z,103194.62
2019-05-12T05:50:39.932Z,103191.76
2019-05-12T05:53:09.202Z,103198.63
2019-05-12T05:55:35.902Z,103213.15
2019-05-12T05:58:07.853Z,103215.25
2019-05-12T06:00:34.091Z,103219.67
2019-05-12T06:03:00.817Z,103218.47
2019-05-12T06:05:30.801Z,103222.98
2019-05-12T06:07:56.774Z,103214.62
2019-05-12T06:10:34.812Z,103229.52
2019-05-12T06:12:54.262Z,103235.57
2019-05-12T06:15:23.437Z,103228.92
2019-05-12T06:17:50.395Z,103235.78
2019-05-12T06:20:17.429Z,103244.64
2019-05-12T06:22:48.577Z,103243.69
2019-05-12T06:25:16.123Z,103252.19
2019-05-12T06:27:44.309Z,103252.78
2019-05-12T06:30:14.552Z,103257.09
2019-05-12T06:32:41.194Z,103254.55
2019-05-12T06:35:09.497Z,103258.88
2019-05-12T06:37:36.552Z,103254.33
2019-05-12T06:40:03.765Z,103269.39
2019-05-12T06:42:30.762Z,103254.63
2019-05-12T06:44:58.293Z,103260.44
2019-05-12T06:47:25.546Z,103258.33
2019-05-12T06:49:54.780Z,103258.33
2019-05-12T06:52:23.621Z,103260.93
2019-05-12T06:54:54.698Z,103256.97
2019-05-12T06:57:25.070Z,103269.01
2019-05-12T06:59:51.434Z,103278.72
2019-05-12T07:02:17.298Z,103274.87
2019-05-12T07:04:49.750Z,103274.88
2019-05-12T07:07:14.287Z,103286.63
2019-05-12T07:09:51.940Z,103285.77
2019-05-12T07:12:10.366Z,103282.66
2019-05-12T07:14:37.427Z,103288.87
2019-05-12T07:17:14.507Z,103297.37
2019-05-12T07:19:43.602Z,103290.21
2019-05-12T07:22:19.908Z,103296.48
2019-05-12T07:24:40.953Z,103302.53
2019-05-12T07:27:09.325Z,103295.01
2019-05-12T07:29:36.505Z,103306.88
2019-05-12T07:32:07.250Z,103306.26
2019-05-12T07:34:33.399Z,103308.28
2019-05-12T07:37:01.450Z,103311.78
2019-05-12T07:39:29.761Z,103317.76
2019-05-12T07:41:59.105Z,103319.52
2019-05-12T07:44:32.108Z,103315.77
2019-05-12T07:46:57.544Z,103322.02
2019-05-12T07:49:34.290Z,103325.16
2019-05-12T07:51:54.214Z,103324.38
2019-05-12T07:54:23.523Z,103329.02
2019-05-12T07:56:50.365Z,103328.13
2019-05-12T07:59:17.406Z,103331.44
2019-05-12T08:01:51.680Z,103331.05
2019-05-12T08:04:13.560Z,103327.22
2019-05-12T08:06:44.508Z,103332.61
2019-05-12T08:09:09.515Z,103331.45
2019-05-12T08:11:38.640Z,103345.73
2019-05-12T08:14:05.542Z,103346.55
2019-05-12T08:16:36.792Z,103329.73
2019-05-12T08:19:03.755Z,103341.22
2019-05-12T08:21:34.888Z,103352.97
2019-05-12T08:23:59.353Z,103350.03
2019-05-12T08:26:26.377Z,103344.70
2019-05-12T08:28:53.666Z,103363.46
2019-05-12T08:31:23.537Z,103362.66
2019-05-12T08:33:49.574Z,103363.80
2019-05-12T08:36:16.671Z,103360.48
2019-05-12T08:38:44.431Z,103370.84
2019-05-12T08:41:11.652Z,103368.41
2019-05-12T08:43:40.449Z,103367.40
2019-05-12T08:46:12.201Z,103380.48
2019-05-12T08:48:36.539Z,103373.02
2019-05-12T08:51:05.266Z,103378.41
2019-05-12T08:53:33.642Z,103379.63
2019-05-12T08:56:06.643Z,103384.01
2019-05-12T08:58:34.188Z,103390.11
2019-05-12T09:00:58.669Z,103396.02
2019-05-12T09:03:30.324Z,103395.47
2019-05-12T09:05:54.640Z,103402.40
2019-05-12T09:08:24.125Z,103407.93
2019-05-12T09:10:54.705Z,103406.86
2019-05-12T09:13:19.746Z,103421.33
2019-05-12T09:15:46.761Z,103423.78
2019-05-12T09:18:14.440Z,103414.23
2019-05-12T09:20:48.938Z,103417.62
2019-05-12T09:23:10.666Z,103422.84
2019-05-12T09:25:39.328Z,103423.23
2019-05-12T09:28:06.874Z,103424.41
2019-05-12T09:30:34.007Z,103431.98
2019-05-12T09:33:01.047Z,103431.34
2019-05-12T09:35:28.618Z,103434.84
2019-05-12T09:37:57.099Z,103430.66
2019-05-12T09:40:24.754Z,103430.23
2019-05-12T09:42:53.317Z,103437.09
2019-05-12T09:45:20.467Z,103439.11
2019-05-12T09:47:47.645Z,103439.27
2019-05-12T09:50:20.135Z,103443.16
2019-05-12T09:52:44.164Z,103445.98
2019-05-12T09:55:11.303Z,103455.16
2019-05-12T09:57:40.770Z,103461.31
2019-05-12T10:00:07.683Z,103459.78
2019-05-12T10:02:34.703Z,103458.26
2019-05-12T10:05:03.951Z,103463.14
2019-05-12T10:07:30.757Z,103468.80
2019-05-12T10:09:59.169Z,103475.34
2019-05-12T10:12:29.519Z,103473.92
2019-05-12T10:14:55.306Z,103482.31
2019-05-12T10:17:26.277Z,103480.11
2019-05-12T10:19:56.213Z,103491.45
2019-05-12T10:22:23.527Z,103485.41
2019-05-12T10:24:55.910Z,103492.08
2019-05-12T10:27:21.241Z,103489.72
2019-05-12T10:29:48.472Z,103488.75
2019-05-12T10:32:15.488Z,103497.48
2019-05-12T10:34:44.376Z,103494.39
2019-05-12T10:37:13.388Z,103503.00
2019-05-12T10:39:40.430Z,103490.41
2019-05-12T10:42:07.478Z,103498.66
2019-05-12T10:44:39.192Z,103508.61
2019-05-12T10:47:05.113Z,103507.18
2019-05-12T10:49:33.739Z,103507.56
2019-05-12T10:52:00.905Z,103514.41
2019-05-12T10:54:27.906Z,103516.75
2019-05-12T10:56:54.960Z,103509.97
2019-05-12T10:59:32.413Z,103509.09
2019-05-12T11:01:50.930Z,103515.36
2019-05-12T11:04:23.367Z,103512.62
2019-05-12T11:06:48.491Z,103512.59
2019-05-12T11:09:15.753Z,103513.10
2019-05-12T11:11:46.769Z,103512.50
2019-05-12T11:14:11.717Z,103518.11
2019-05-12T11:16:42.528Z,103521.91
2019-05-12T11:19:10.604Z,103522.22
2019-05-12T11:21:37.800Z,103523.14
2019-05-12T11:24:04.817Z,103527.30
2019-05-12T11:26:31.861Z,103536.53
2019-05-12T11:28:58.910Z,103526.41
2019-05-12T11:31:25.919Z,103543.15
2019-05-12T11:33:54.131Z,103537.41
2019-05-12T11:36:24.098Z,103555.91
2019-05-12T11:38:53.228Z,103548.55
2019-05-12T11:41:20.521Z,103559.42
2019-05-12T11:43:47.587Z,103555.48
2019-05-12T11:46:14.587Z,103556.34
2019-05-12T11:48:46.408Z,103562.47
2019-05-12T11:51:10.552Z,103568.72
2019-05-12T11:53:37.572Z,103566.62
2019-05-12T11:56:07.573Z,103561.39
2019-05-12T11:58:33.673Z,103571.42
2019-05-12T12:01:06.321Z,103571.13
2019-05-12T12:03:33.571Z,103577.02
2019-05-12T12:06:00.449Z,103578.83
2019-05-12T12:08:35.723Z,103583.88
2019-05-12T12:10:56.603Z,103582.97
2019-05-12T12:13:28.386Z,103589.95
2019-05-12T12:15:52.619Z,103588.20
2019-05-12T12:18:19.659Z,103593.98
2019-05-12T12:20:46.870Z,103595.08
2019-05-12T12:23:14.193Z,103599.33
2019-05-12T12:25:43.133Z,103597.52
2019-05-12T12:28:13.489Z,103599.35
2019-05-12T12:30:40.112Z,103605.95
2019-05-12T12:33:07.131Z,103612.95
2019-05-12T12:35:34.801Z,103604.62
2019-05-12T12:38:03.532Z,103613.17
2019-05-12T12:40:30.858Z,103616.01
2019-05-12T12:42:57.910Z,103615.76
2019-05-12T12:45:50.646Z,103612.27
2019-05-12T12:48:19.457Z,103625.43
2019-05-12T12:50:46.562Z,103622.77
2019-05-12T12:53:13.695Z,103629.95
2019-05-12T12:55:43.443Z,103627.24
2019-05-12T12:58:09.623Z,103629.00
2019-05-12T13:00:46.634Z,103633.20
2019-05-12T13:03:05.604Z,103629.83
2019-05-12T13:05:34.509Z,103636.34
2019-05-12T13:08:04.080Z,103641.17
2019-05-12T13:10:30.494Z,103646.47
2019-05-12T13:13:00.936Z,103642.77
2019-05-12T13:15:26.504Z,103652.02
2019-05-12T13:17:53.528Z,103646.56
2019-05-12T13:20:23.663Z,103646.61
2019-05-12T13:22:50.241Z,103648.86
2019-05-12T13:25:17.257Z,103659.39
2019-05-12T13:27:44.308Z,103670.81
2019-05-12T13:30:18.598Z,103664.31
2019-05-12T13:32:40.444Z,103668.39
2019-05-12T13:35:14.729Z,103672.67
2019-05-12T13:37:36.869Z,103671.84
2019-05-12T13:40:04.268Z,103671.05
2019-05-12T13:42:35.759Z,103676.39
2019-05-12T13:45:00.204Z,103680.33
2019-05-12T13:47:32.405Z,103680.23
2019-05-12T13:49:56.183Z,103680.23
2019-05-12T13:52:26.383Z,103686.65
2019-05-12T13:54:52.142Z,103691.63
2019-05-12T13:57:19.550Z,103698.75
2019-05-12T13:59:46.591Z,103703.31
2019-05-12T14:02:21.815Z,103704.64
2019-05-12T14:04:44.355Z,103691.95
2019-05-12T14:07:17.784Z,103696.61
2019-05-12T14:09:40.384Z,103712.05
2019-05-12T14:12:07.380Z,103709.53
2019-05-12T14:14:34.442Z,103704.04
2019-05-12T14:17:03.931Z,103711.89
2019-05-12T14:19:35.413Z,103723.25
2019-05-12T14:21:59.364Z,103716.36
2019-05-12T14:24:26.403Z,103723.50
2019-05-12T14:26:53.593Z,103717.63
2019-05-12T14:29:25.763Z,103716.94
2019-05-12T14:31:54.504Z,103724.75
2019-05-12T14:34:20.761Z,103727.80
2019-05-12T14:36:47.410Z,103724.53
2019-05-12T14:39:14.514Z,103727.13
2019-05-12T14:41:44.567Z,103720.52
2019-05-12T14:44:10.547Z,103733.78
2019-05-12T14:46:40.075Z,103727.44
2019-05-12T14:49:06.485Z,103728.53
2019-05-12T14:51:33.555Z,103729.38
2019-05-12T14:54:00.542Z,103727.82
2019-05-12T14:56:27.552Z,103730.19
2019-05-12T14:58:56.612Z,103727.23
2019-05-12T15:01:23.896Z,103727.73
2019-05-12T15:03:53.509Z,103739.36
2019-05-12T15:06:25.703Z,103738.77
2019-05-12T15:08:49.688Z,103737.75
2019-05-12T15:11:16.713Z,103747.86
2019-05-12T15:13:43.799Z,103746.03
2019-05-12T15:16:10.842Z,103745.25
2019-05-12T15:18:39.440Z,103742.94
2019-05-12T15:21:06.777Z,103757.14
2019-05-12T15:23:37.251Z,103751.70
2019-05-12T15:26:04.351Z,103745.58
2019-05-12T15:28:33.708Z,103757.77
2019-05-12T15:31:00.757Z,103758.59
2019-05-12T15:33:27.823Z,103760.77
2019-05-12T15:35:54.961Z,103761.10
2019-05-12T15:38:23.933Z,103764.66
2019-05-12T15:40:50.896Z,103765.83
2019-05-12T15:43:17.915Z,103764.72
2019-05-12T15:45:49.001Z,103761.89
2019-05-12T15:48:14.521Z,103769.03
2019-05-12T15:50:45.429Z,103765.97
2019-05-12T15:53:13.726Z,103779.16
2019-05-12T15:55:39.535Z,103769.69
2019-05-12T15:58:06.547Z,103777.33
2019-05-12T16:00:34.419Z,103781.76
2019-05-12T16:03:01.516Z,103778.03
2019-05-12T16:05:30.937Z,103785.45
2019-05-12T16:07:57.450Z,103785.92
2019-05-12T16:10:24.500Z,103778.52
2019-05-12T16:12:51.564Z,103780.83
2019-05-12T16:15:19.418Z,103787.92
2019-05-12T16:17:46.626Z,103794.39
2019-05-12T16:20:14.364Z,103795.64
2019-05-12T16:22:44.908Z,103796.69
2019-05-12T16:25:10.871Z,103795.07
2019-05-12T16:27:37.874Z,103800.56
2019-05-12T16:30:05.721Z,103800.16
2019-05-12T16:32:42.438Z,103803.11
2019-05-12T16:35:05.083Z,103798.39
2019-05-12T16:37:31.472Z,103798.48
2019-05-12T16:39:59.541Z,103796.67
2019-05-12T16:42:27.448Z,103799.87
2019-05-12T16:44:56.233Z,103808.08
2019-05-12T16:47:25.071Z,103811.27
2019-05-12T16:49:53.440Z,103809.37
2019-05-12T16:52:20.573Z,103807.38
2019-05-12T16:54:47.588Z,103807.57
2019-05-12T16:57:18.113Z,103813.07
2019-05-12T16:59:43.894Z,103818.70
2019-05-12T17:02:10.914Z,103816.59
2019-05-12T17:04:37.937Z,103822.87
2019-05-12T17:07:09.917Z,103829.66
2019-05-12T17:09:33.891Z,103824.27
2019-05-12T17:12:00.920Z,103834.75
2019-05-12T17:14:28.820Z,103834.58
2019-05-12T17:16:55.954Z,103838.19
2019-05-12T17:19:23.633Z,103841.52
2019-05-12T17:21:55.502Z,103835.70
2019-05-12T17:24:19.889Z,103839.50
2019-05-12T17:26:46.915Z,103838.28
2019-05-12T17:29:15.125Z,103842.98
2019-05-12T17:31:44.255Z,103838.83
2019-05-12T17:34:11.102Z,103837.23
2019-05-12T17:36:38.093Z,103841.14
2019-05-12T17:39:06.430Z,103845.42
2019-05-12T17:41:40.270Z,103849.84
2019-05-12T17:44:04.322Z,103847.94
2019-05-12T17:46:32.421Z,103857.41
2019-05-12T17:49:00.410Z,103865.30
2019-05-12T17:51:30.859Z,103871.47
2019-05-12T17:53:56.385Z,103865.50
2019-05-12T17:56:25.197Z,103870.95
2019-05-12T17:58:52.378Z,103871.48
2019-05-12T18:01:23.099Z,103862.45
2019-05-12T18:03:50.457Z,103867.97
2019-05-12T18:06:20.286Z,103873.89
2019-05-12T18:08:46.251Z,103875.84
2019-05-12T18:11:15.960Z,103878.97
2019-05-12T18:13:42.275Z,103888.11
2019-05-12T18:16:11.608Z,103879.64
2019-05-12T18:18:38.525Z,103884.27
2019-05-12T18:21:05.673Z,103882.83
2019-05-12T18:23:34.417Z,103891.09
2019-05-12T18:26:03.019Z,103884.30
2019-05-12T18:28:30.650Z,103888.06
2019-05-12T18:30:57.699Z,103878.09
2019-05-12T18:33:33.366Z,103884.06
2019-05-12T18:35:54.413Z,103884.07
2019-05-12T18:38:26.183Z,103877.02
2019-05-12T18:40:50.662Z,103879.23
2019-05-12T18:43:17.670Z,103884.11
2019-05-12T18:45:48.820Z,103880.75
2019-05-12T18:48:17.876Z,103889.63
2019-05-12T18:50:44.169Z,103884.85
2019-05-12T18:53:14.926Z,103883.52
2019-05-12T18:55:40.593Z,103882.38
2019-05-12T18:58:07.615Z,103881.60
2019-05-12T19:00:34.788Z,103884.31
2019-05-12T19:03:06.137Z,103884.31
2019-05-12T19:05:31.120Z,103884.09
2019-05-12T19:07:58.169Z,103895.95
2019-05-12T19:10:25.331Z,103899.12
2019-05-12T19:13:01.020Z,103891.55
2019-05-12T19:15:22.073Z,103899.26
2019-05-12T19:17:49.427Z,103904.77
2019-05-12T19:20:19.564Z,103904.89
2019-05-12T19:22:56.146Z,103907.30
2019-05-12T19:25:14.997Z,103920.47
2019-05-12T19:27:45.764Z,103926.74
2019-05-12T19:30:13.812Z,103935.88
2019-05-12T19:32:40.657Z,103932.00
2019-05-12T19:35:09.521Z,103937.73
2019-05-12T19:37:36.624Z,103942.02
2019-05-12T19:40:12.519Z,103936.16
2019-05-12T19:42:33.095Z,103939.16
2019-05-12T19:45:00.386Z,103946.52
2019-05-12T19:47:33.822Z,103948.13
2019-05-12T19:49:59.441Z,103945.63
2019-05-12T19:52:26.922Z,103955.98
2019-05-12T19:54:54.045Z,103954.27
2019-05-12T19:57:23.462Z,103953.11
2019-05-12T19:59:52.352Z,103953.11
2019-05-12T20:02:19.496Z,103951.23
2019-05-12T20:04:51.862Z,103948.05
2019-05-12T20:07:18.562Z,103953.64
2019-05-12T20:09:55.062Z,103950.04
2019-05-12T20:12:18.799Z,103948.62
2019-05-12T20:14:43.730Z,103954.38
2019-05-12T20:17:10.764Z,103952.22
2019-05-12T20:19:37.994Z,103956.22
2019-05-12T20:22:05.046Z,103957.05
2019-05-12T20:24:32.088Z,103947.83
2019-05-12T20:26:59.154Z,103955.87
2019-05-12T20:29:33.461Z,103957.23
2019-05-12T20:31:55.156Z,103959.34
2019-05-12T20:34:24.421Z,103957.80
2019-05-12T20:36:53.526Z,103960.05
2019-05-12T20:39:22.367Z,103960.82
2019-05-12T20:41:48.990Z,103960.14
2019-05-12T20:44:19.922Z,103968.83
2019-05-12T20:46:45.276Z,103964.89
2019-05-12T20:49:14.860Z,103970.55
2019-05-12T20:51:41.277Z,103966.86
2019-05-12T20:54:16.123Z,103966.06
2019-05-12T20:56:37.221Z,103971.07
2019-05-12T20:59:04.375Z,103971.06
2019-05-12T21:01:33.489Z,103967.12
2019-05-12T21:04:00.383Z,103979.53
2019-05-12T21:06:32.321Z,103979.53
2019-05-12T21:08:56.812Z,103982.66
2019-05-12T21:11:24.612Z,103987.91
2019-05-12T21:13:54.391Z,103987.91
2019-05-12T21:16:30.842Z,103983.45
2019-05-12T21:18:56.323Z,103990.54
2019-05-12T21:21:18.793Z,103981.19
2019-05-12T21:23:53.743Z,103981.08
2019-05-12T21:26:14.775Z,103986.98
2019-05-12T21:28:46.118Z,103986.84
2019-05-12T21:31:10.798Z,103986.34
2019-05-12T21:33:41.608Z,103986.34
2019-05-12T21:36:06.805Z,103992.36
2019-05-12T21:38:34.144Z,103981.84
2019-05-12T21:41:02.194Z,103985.02
2019-05-12T21:43:32.473Z,103988.16
2019-05-12T21:46:01.031Z,103981.33
2019-05-12T21:48:29.285Z,103977.90
2019-05-12T21:50:56.564Z,103973.30
2019-05-12T21:53:23.961Z,103973.30
2019-05-12T21:55:57.710Z,103985.27
2019-05-12T21:58:20.080Z,103985.27
2019-05-12T22:01:00.049Z,103996.05
2019-05-12T22:03:19.919Z,103996.05
2019-05-12T22:05:51.489Z,103998.53
2019-05-12T22:08:22.039Z,103994.22
2019-05-12T22:10:47.027Z,103998.67
2019-05-12T22:13:17.073Z,104001.39
2019-05-12T22:15:43.071Z,104002.59
2019-05-12T22:18:10.141Z,103999.72
2019-05-12T22:20:37.196Z,103994.23
2019-05-12T22:23:11.978Z,103995.18
2019-05-12T22:25:34.470Z,104010.44
2019-05-12T22:28:05.395Z,104010.48
2019-05-12T22:30:31.538Z,104002.60
2019-05-12T22:32:59.568Z,104002.60
2019-05-12T22:35:27.643Z,104009.41
2019-05-12T22:37:54.671Z,104013.48
2019-05-12T22:40:23.567Z,104018.73
2019-05-12T22:42:56.134Z,104009.55
2019-05-12T22:45:19.631Z,104012.76
2019-05-12T22:47:49.230Z,104016.69
2019-05-12T22:50:15.584Z,104012.23
2019-05-12T22:52:49.332Z,104016.17
2019-05-12T22:55:14.810Z,104000.16
2019-05-12T22:57:43.557Z,104000.16
2019-05-12T23:00:13.377Z,104008.97
2019-05-12T23:02:40.130Z,104013.17
2019-05-12T23:05:10.299Z,104008.81
2019-05-12T23:07:36.173Z,104008.81
2019-05-12T23:10:06.931Z,104013.67
2019-05-12T23:12:34.312Z,104014.69
2019-05-12T23:15:06.340Z,104022.72
2019-05-12T23:17:30.533Z,104018.95
2019-05-12T23:19:57.536Z,104016.83
2019-05-12T23:22:29.532Z,104018.41
2019-05-12T23:24:54.726Z,104015.14
2019-05-12T23:27:28.163Z,104010.65
2019-05-12T23:29:50.804Z,104011.83
2019-05-12T23:32:17.828Z,104018.52
2019-05-12T23:34:53.070Z,104014.52
2019-05-12T23:37:14.242Z,104014.52
2019-05-12T23:39:41.375Z,104012.69
2019-05-12T23:42:08.520Z,104028.45
2019-05-12T23:44:35.597Z,104052.34
2019-05-12T23:47:04.337Z,104012.70
2019-05-12T23:49:33.730Z,104022.48
2019-05-12T23:52:00.554Z,104012.55
2019-05-12T23:54:27.566Z,104020.63
2019-05-12T23:56:54.594Z,104016.56
2019-05-12T23:59:23.846Z,104011.05
